KLCH/LCH METAR and TAF weather

Enter ICAO airport designator
Station Type Date Time Source
KLCH METAR 2019/05/26 22:53 UTC NOAA

KLCH 262253Z 15007KT 10SM FEW044 31/20 A3004 RMK AO2 SLP179 T03110200


Station Type Date Time Source
KLCH Decoded METAR 2019/05/26 22:53 UTC NOAA

LAKE CHARLES REGIONAL AIRPORT , LA, United States (KLCH) 30-12N 093-23W 3M
May 26, 2019 - 06:53 PM EDT / 2019.05.26 2253 UTC
Wind: from the SSE (150 degrees) at 8 MPH (7 KT):0
Visibility: 10 mile(s):0
Sky conditions: mostly clear
Temperature: 88.0 F (31.1 C)
Dew Point: 68.0 F (20.0 C)
Relative Humidity: 51%
Pressure (altimeter): 30.04 in. Hg (1017 hPa)
ob: KLCH 262253Z 15007KT 10SM FEW044 31/20 A3004 RMK AO2 SLP179 T03110200
cycle: 23

Station Type Date Time Source
KLCH TAF 2019/05/26 18:22 UTC NOAA

TAF KLCH 261720Z 2618/2718 17008KT P6SM SCT030 SCT200
FM270000 16004KT P6SM FEW040 FEW200
FM271100 16004KT P6SM BKN025
FM271600 19007KT P6SM BKN050

Example: see airport list